Noodle, Texas
Current Conditions -  °F | °C
As of 7:58 AM on Thursday 23 Oct 2014 (Local Time) from KDYS Reporting Station
Broken Clouds Broken Clouds  
Wind Chill: 59°   Ceiling: 6000
Heat Index: 59°   Visibility: 10mi
Dew Point: 56°   Wind: 7mph
Humidity: 88%   Direction: 160°SSE
Pressure: 30.11"   Gusts: NA
Location:  32.3913°N, 100.009°W
Report Text: KDYS 231258Z AUTO 16006KT 10SM BKN060 15/13 A3011 RMK AO2 SLP170 T01520133
Loading
Personal Weather Stations






























Interactive Weather Map
Tropical Storm Tracking
New forecast layout! Learn more

10-Day Weather Forecast

Advertisements
Track Severe Weather on mobile